Time;durP1;ratioP1;P1;durP2;ratioP2;P2;SDS_P1;SDS_P2;PMS_P1;PMS_P2;Temp;Humidity;BMP_temperature;BMP_pressure;BME280_temperature;BME280_humidity;BME280_pressure;Samples;Min_cycle;Max_cycle;Signal;HPM_P1;HPM_P2
2021/04/23 00:01:51;;;;;;;27.15;13.05;;;;;;;1.69;71.78;99100.41;2226842;80;21147;-86
2021/04/23 00:04:53;;;;;;;28.20;12.03;;;;;;;1.65;71.73;99098.53;2226596;80;21267;-86
2021/04/23 00:07:54;;;;;;;24.30;11.57;;;;;;;1.63;71.85;99095.69;2229058;79;21317;-86
2021/04/23 00:10:56;;;;;;;34.92;11.83;;;;;;;1.64;71.94;99094.75;2210436;80;21322;-86
2021/04/23 00:13:58;;;;;;;25.68;10.90;;;;;;;1.62;72.17;99089.70;2258107;78;21111;-86
2021/04/23 00:17:00;;;;;;;42.08;15.50;;;;;;;1.61;72.16;99092.41;2209765;80;21305;-86
2021/04/23 00:20:01;;;;;;;28.35;12.88;;;;;;;1.60;72.13;99089.47;2251435;78;21265;-86
2021/04/23 00:23:03;;;;;;;25.40;11.50;;;;;;;1.61;72.36;99091.94;2256322;79;21257;-86
2021/04/23 00:26:06;;;;;;;21.35;11.00;;;;;;;1.62;72.68;99091.00;2209825;80;21701;-85
2021/04/23 00:29:07;;;;;;;21.52;9.28;;;;;;;1.60;72.39;99089.00;2258197;78;21266;-85
2021/04/23 00:35:29;;;;;;;38.48;14.07;;;;;;;1.49;72.72;99089.45;2259732;79;21157;-85
2021/04/23 00:38:30;;;;;;;23.57;10.30;;;;;;;1.43;72.88;99092.82;2259911;79;21165;-86
2021/04/23 00:41:32;;;;;;;24.98;10.60;;;;;;;1.42;73.04;99087.78;2259670;79;21287;-85
2021/04/23 00:44:34;;;;;;;20.15;9.05;;;;;;;1.42;73.33;99096.81;2260080;79;21624;-85
2021/04/23 00:47:35;;;;;;;22.60;9.55;;;;;;;1.40;73.39;99090.48;2260187;79;21287;-85
2021/04/23 00:50:39;;;;;;;25.02;10.82;;;;;;;1.37;73.36;99087.28;2260121;79;21280;-85
2021/04/23 00:53:41;;;;;;;27.82;11.10;;;;;;;1.37;73.70;99088.56;2264330;78;21116;-84
2021/04/23 00:56:43;;;;;;;18.75;9.55;;;;;;;1.37;73.92;99094.58;2252443;79;21154;-85
2021/04/23 00:59:45;;;;;;;20.43;9.35;;;;;;;1.36;73.56;99092.09;2254934;79;21135;-85
2021/04/23 01:02:46;;;;;;;21.27;10.28;;;;;;;1.35;73.70;99091.27;2254420;79;21143;-85
2021/04/23 01:05:48;;;;;;;15.40;9.23;;;;;;;1.34;73.87;99086.22;2252670;79;21750;-86
2021/04/23 01:08:50;;;;;;;19.05;10.30;;;;;;;1.30;73.94;99089.51;2252267;79;21614;-86
2021/04/23 01:11:52;;;;;;;25.85;9.13;;;;;;;1.28;74.04;99082.79;2252676;79;21281;-85
2021/04/23 01:14:54;;;;;;;22.77;10.50;;;;;;;1.27;73.99;99088.89;2252709;79;21158;-85
2021/04/23 01:17:56;;;;;;;15.88;7.90;;;;;;;1.24;74.50;99087.36;2253058;79;21152;-87
2021/04/23 01:20:58;;;;;;;47.98;19.98;;;;;;;1.21;74.60;99094.52;2256432;79;21147;-85
2021/04/23 01:24:00;;;;;;;24.47;11.45;;;;;;;1.13;74.30;99100.22;2256600;78;21290;-87
2021/04/23 01:27:02;;;;;;;22.20;9.50;;;;;;;1.14;74.59;99106.55;2244905;79;21293;-87
2021/04/23 01:30:04;;;;;;;21.77;9.48;;;;;;;1.11;74.72;99101.63;2256184;79;21266;-86
2021/04/23 01:33:06;;;;;;;20.23;8.95;;;;;;;1.08;75.11;99101.00;2256650;79;21151;-86
2021/04/23 01:36:08;;;;;;;22.00;8.45;;;;;;;1.07;75.21;99105.80;2256552;79;21270;-86
2021/04/23 01:39:09;;;;;;;14.43;8.30;;;;;;;1.05;75.18;99107.68;2255907;79;21253;-85
2021/04/23 01:42:11;;;;;;;17.77;8.43;;;;;;;1.02;75.40;99109.20;2254827;78;21286;-86
2021/04/23 01:45:13;;;;;;;21.62;7.65;;;;;;;1.00;75.84;99109.75;2254866;79;21128;-85
2021/04/23 01:48:14;;;;;;;12.68;7.97;;;;;;;0.99;75.79;99109.40;2256265;79;21242;-86
2021/04/23 01:51:16;;;;;;;14.55;7.17;;;;;;;1.01;75.84;99114.83;2256390;79;21171;-86
2021/04/23 01:54:19;;;;;;;13.60;6.28;;;;;;;1.02;76.18;99107.91;2262611;78;21701;-85
2021/04/23 01:57:21;;;;;;;15.80;7.50;;;;;;;1.00;76.76;99104.13;2271135;77;21770;-85
2021/04/23 02:00:23;;;;;;;11.83;5.90;;;;;;;1.00;76.68;99102.02;2270834;77;21313;-85
2021/04/23 02:03:24;;;;;;;12.95;7.00;;;;;;;1.02;76.94;99111.31;2270884;78;21308;-86
2021/04/23 02:06:26;;;;;;;13.68;7.05;;;;;;;1.02;76.44;99109.20;2271070;78;21300;-86
2021/04/23 02:09:28;;;;;;;20.57;8.35;;;;;;;1.03;76.52;99116.00;2270879;78;21336;-86
2021/04/23 02:12:30;;;;;;;18.10;7.33;;;;;;;1.03;76.51;99112.95;2270769;78;21182;-86
2021/04/23 02:15:31;;;;;;;16.97;7.85;;;;;;;1.04;76.38;99118.94;2270735;78;21269;-86
2021/04/23 02:18:33;;;;;;;16.82;7.45;;;;;;;1.05;76.74;99120.11;2270739;77;21674;-86
2021/04/23 02:21:35;;;;;;;11.80;6.17;;;;;;;1.07;76.76;99115.66;2271079;78;21262;-86
2021/04/23 02:24:37;;;;;;;16.80;7.30;;;;;;;1.07;76.74;99115.66;2270826;78;21255;-86
2021/04/23 02:27:39;;;;;;;12.65;6.12;;;;;;;1.06;76.67;99119.17;2270951;77;21309;-87
2021/04/23 02:30:40;;;;;;;10.38;5.58;;;;;;;1.05;76.98;99120.11;2270758;78;21171;-87
2021/04/23 02:33:42;;;;;;;12.50;6.85;;;;;;;1.02;77.17;99113.89;2271090;77;21290;-86
2021/04/23 02:36:44;;;;;;;13.28;6.53;;;;;;;0.96;77.73;99116.89;2270812;78;22266;-85
2021/04/23 02:39:45;;;;;;;10.95;6.33;;;;;;;0.92;77.16;99118.06;2270964;77;21686;-86
2021/04/23 02:42:47;;;;;;;11.10;6.62;;;;;;;0.91;77.28;99121.54;2271236;77;21262;-85
2021/04/23 02:45:49;;;;;;;10.75;6.92;;;;;;;0.90;77.23;99121.19;2271546;77;21114;-86
2021/04/23 02:48:51;;;;;;;24.00;10.78;;;;;;;0.89;77.24;99129.03;2270902;78;21300;-86
2021/04/23 02:51:53;;;;;;;13.25;6.20;;;;;;;0.88;77.16;99125.63;2271084;78;21163;-86
2021/04/23 02:54:54;;;;;;;15.08;7.45;;;;;;;0.90;77.20;99128.10;2266670;78;21374;-86
2021/04/23 02:57:56;;;;;;;11.55;7.42;;;;;;;0.89;77.04;99137.59;2263464;78;21316;-86
2021/04/23 03:00:59;;;;;;;16.57;6.45;;;;;;;0.84;77.23;99133.24;2263650;79;21686;-86
2021/04/23 03:04:01;;;;;;;12.60;7.28;;;;;;;0.75;77.27;99128.27;2263565;78;21341;-86
2021/04/23 03:07:03;;;;;;;14.10;7.60;;;;;;;0.71;77.76;99125.99;2263299;78;21147;-85
2021/04/23 03:10:05;;;;;;;17.82;9.18;;;;;;;0.64;77.51;99124.77;2263444;78;21722;-85
2021/04/23 03:13:07;;;;;;;14.83;8.33;;;;;;;0.59;77.91;99124.28;2263254;78;21166;-85
2021/04/23 03:16:09;;;;;;;14.00;8.78;;;;;;;0.54;78.23;99130.55;2263355;79;21745;-86
2021/04/23 03:19:11;;;;;;;17.05;8.80;;;;;;;0.54;78.43;99127.98;2263387;78;21175;-86
2021/04/23 03:22:13;;;;;;;18.70;9.58;;;;;;;0.57;78.85;99133.41;2263220;78;21130;-85
2021/04/23 03:25:14;;;;;;;18.75;10.05;;;;;;;0.60;78.86;99139.63;2263746;79;21309;-85
2021/04/23 03:28:16;;;;;;;19.37;9.25;;;;;;;0.60;78.86;99142.67;2263144;79;21131;-86
2021/04/23 03:31:19;;;;;;;16.57;9.58;;;;;;;0.64;78.65;99141.52;2270240;77;21267;-86
2021/04/23 03:34:21;;;;;;;20.20;8.95;;;;;;;0.66;78.63;99144.84;2262980;78;21293;-85
2021/04/23 03:37:22;;;;;;;19.90;10.50;;;;;;;0.69;78.67;99145.90;2263378;78;21174;-85
2021/04/23 03:40:25;;;;;;;22.60;11.35;;;;;;;0.71;78.64;99146.61;2263234;79;21297;-86
2021/04/23 03:43:27;;;;;;;26.95;11.57;;;;;;;0.76;78.71;99151.00;2263139;78;21129;-87
2021/04/23 03:46:29;;;;;;;22.85;12.30;;;;;;;0.83;79.10;99153.05;2263217;78;21683;-85
2021/04/23 03:49:31;;;;;;;26.73;10.32;;;;;;;0.85;78.61;99154.22;2263379;78;21293;-86
2021/04/23 03:52:32;;;;;;;20.82;8.55;;;;;;;0.91;78.73;99162.80;2263466;78;21313;-87
2021/04/23 03:55:34;;;;;;;28.15;10.32;;;;;;;0.99;78.84;99163.08;2255779;78;21174;-85
2021/04/23 03:58:36;;;;;;;18.95;8.65;;;;;;;1.20;79.18;99158.19;2252627;79;21785;-86
2021/04/23 04:01:38;;;;;;;16.40;9.13;;;;;;;1.48;78.64;99155.73;2254378;79;21551;-86
2021/04/23 04:04:40;;;;;;;20.80;8.83;;;;;;;1.92;78.37;99152.91;2256197;79;21265;-86
2021/04/23 04:07:42;;;;;;;19.12;8.43;;;;;;;2.34;78.01;99159.20;2256133;79;21147;-87
2021/04/23 04:10:44;;;;;;;14.13;7.90;;;;;;;2.70;77.16;99162.03;2256099;79;21140;-87
2021/04/23 04:13:45;;;;;;;12.70;6.72;;;;;;;3.12;76.95;99172.56;2256056;79;21131;-88
2021/04/23 04:16:47;;;;;;;12.20;6.95;;;;;;;3.64;76.12;99164.48;2274247;78;21253;-87
2021/04/23 04:19:49;;;;;;;11.15;6.55;;;;;;;4.13;75.42;99166.96;2274789;77;21249;-87
2021/04/23 04:22:51;;;;;;;8.83;6.25;;;;;;;4.62;74.63;99170.60;2264874;78;21277;-87
2021/04/23 04:25:54;;;;;;;14.98;6.65;;;;;;;5.09;73.80;99173.81;2252310;79;21626;-87
2021/04/23 04:28:56;;;;;;;13.05;6.85;;;;;;;5.55;73.23;99172.38;2253130;79;21611;-87
2021/04/23 04:31:58;;;;;;;11.78;6.08;;;;;;;6.06;72.90;99175.67;2259233;77;21189;-86
2021/04/23 04:35:00;;;;;;;11.68;6.67;;;;;;;6.43;70.55;99180.44;2258972;78;21245;-86
2021/04/23 04:38:02;;;;;;;8.05;6.33;;;;;;;6.73;70.94;99175.45;2265372;78;21253;-85
2021/04/23 04:41:04;;;;;;;13.78;8.43;;;;;;;6.84;70.04;99180.47;2253487;79;21695;-85
2021/04/23 04:44:06;;;;;;;13.95;7.10;;;;;;;6.92;70.34;99185.44;2252589;79;21160;-85
2021/04/23 04:47:07;;;;;;;13.40;6.55;;;;;;;6.96;69.18;99195.44;2266852;78;21253;-85
2021/04/23 04:50:09;;;;;;;9.70;6.33;;;;;;;6.77;69.51;99189.02;2255004;79;21111;-87
2021/04/23 04:53:11;;;;;;;10.70;6.42;;;;;;;6.47;68.65;99189.58;2254969;79;21141;-89
2021/04/23 04:56:14;;;;;;;9.60;6.45;;;;;;;6.33;69.25;99189.23;2252755;79;21770;-87
2021/04/23 04:59:16;;;;;;;14.53;7.00;;;;;;;6.23;69.32;99196.58;2252940;79;21133;-87
2021/04/23 05:02:18;;;;;;;11.53;6.28;;;;;;;6.20;69.59;99192.94;2252549;79;21125;-87
2021/04/23 05:05:19;;;;;;;10.25;5.53;;;;;;;6.35;69.29;99205.03;2253831;79;21136;-87
2021/04/23 05:08:21;;;;;;;13.03;6.40;;;;;;;6.48;68.49;99209.43;2256263;79;21278;-86
2021/04/23 05:11:23;;;;;;;10.15;7.28;;;;;;;6.54;68.70;99206.76;2256185;79;21600;-89
2021/04/23 05:14:24;;;;;;;14.98;8.83;;;;;;;6.66;68.85;99212.11;2256354;79;21159;-88
2021/04/23 05:17:27;;;;;;;16.05;8.43;;;;;;;6.94;68.62;99216.86;2256753;79;21302;-91
2021/04/23 05:20:29;;;;;;;11.60;6.75;;;;;;;7.17;66.95;99216.02;2255890;78;21750;-91
2021/04/23 05:23:31;;;;;;;11.68;7.15;;;;;;;7.34;67.35;99219.62;2252947;79;21143;-87
2021/04/23 05:26:32;;;;;;;16.82;8.35;;;;;;;7.65;67.12;99224.81;2252570;79;21626;-88
2021/04/23 05:29:34;;;;;;;11.20;6.80;;;;;;;7.64;66.66;99231.48;2252762;79;21132;-88
2021/04/23 05:32:36;;;;;;;12.85;7.20;;;;;;;7.42;66.17;99235.34;2252913;79;21297;-87
2021/04/23 05:35:38;;;;;;;14.40;7.35;;;;;;;7.21;66.09;99236.88;2252885;79;21136;-87
2021/04/23 05:38:40;;;;;;;9.35;5.37;;;;;;;7.09;66.36;99239.35;2252888;79;21290;-88
2021/04/23 05:41:42;;;;;;;16.00;8.88;;;;;;;7.11;65.90;99240.02;2252513;79;21161;-87
2021/04/23 05:44:43;;;;;;;10.95;6.28;;;;;;;6.85;66.12;99243.76;2252747;79;21115;-86
2021/04/23 05:47:45;;;;;;;16.17;7.08;;;;;;;6.72;66.93;99245.39;2252630;79;21709;-87
2021/04/23 05:50:47;;;;;;;18.32;7.58;;;;;;;6.70;67.08;99242.59;2252560;79;21154;-86
2021/04/23 05:53:49;;;;;;;12.20;6.92;;;;;;;6.58;66.88;99246.31;2252687;79;21158;-88
2021/04/23 05:56:51;;;;;;;10.90;6.55;;;;;;;6.44;66.75;99246.28;2262654;79;21155;-87
2021/04/23 05:59:53;;;;;;;12.33;7.60;;;;;;;6.37;67.16;99243.41;2263217;78;21131;-86
2021/04/23 06:02:54;;;;;;;13.48;7.22;;;;;;;6.64;67.03;99250.48;2263574;78;21289;-87
2021/04/23 06:05:56;;;;;;;17.27;8.43;;;;;;;6.92;66.77;99251.34;2263615;78;21273;-87
2021/04/23 06:08:58;;;;;;;12.05;6.25;;;;;;;7.09;66.76;99250.59;2263551;79;21179;-87
2021/04/23 06:12:00;;;;;;;14.93;6.78;;;;;;;7.13;66.43;99252.41;2263449;79;21300;-87
2021/04/23 06:15:02;;;;;;;14.47;8.45;;;;;;;6.97;66.33;99260.86;2263711;79;21147;-87
2021/04/23 06:18:04;;;;;;;14.20;8.63;;;;;;;6.86;66.37;99258.44;2263369;79;21328;-88
2021/04/23 06:21:06;;;;;;;16.17;9.23;;;;;;;6.74;66.43;99253.87;2263378;78;21182;-87
2021/04/23 06:24:08;;;;;;;11.88;7.22;;;;;;;6.95;66.62;99256.28;2264017;78;21308;-88
2021/04/23 06:27:10;;;;;;;15.83;8.23;;;;;;;7.17;66.00;99256.38;2263471;78;21272;-86
2021/04/23 06:30:12;;;;;;;14.73;7.55;;;;;;;7.27;66.33;99258.45;2264246;78;21710;-84
2021/04/23 06:33:16;;;;;;;13.35;7.72;;;;;;;7.27;65.56;99256.33;2263325;79;21103;-86
2021/04/23 06:36:17;;;;;;;17.77;8.40;;;;;;;7.39;65.92;99255.98;2263382;78;21194;-85
2021/04/23 06:39:19;;;;;;;12.63;7.20;;;;;;;7.61;65.29;99261.77;2263488;78;21285;-85
2021/04/23 06:42:21;;;;;;;11.88;8.10;;;;;;;7.90;65.04;99254.55;2263875;79;21305;-84
2021/04/23 06:45:23;;;;;;;10.55;6.80;;;;;;;7.91;64.69;99248.36;2263628;79;21103;-85
2021/04/23 06:48:26;;;;;;;10.60;8.35;;;;;;;7.93;64.28;99250.33;2263351;79;21242;-84
2021/04/23 06:51:28;;;;;;;15.10;9.33;;;;;;;7.92;63.91;99260.91;2263392;78;21174;-84
2021/04/23 06:54:30;;;;;;;11.95;8.53;;;;;;;7.84;63.65;99257.74;2262602;79;21122;-88
2021/04/23 06:57:31;;;;;;;12.10;7.85;;;;;;;7.99;63.25;99254.14;2252923;79;21151;-91
2021/04/23 07:00:33;;;;;;;14.28;8.30;;;;;;;8.10;64.24;99251.78;2253095;79;21151;-83
2021/04/23 07:03:35;;;;;;;13.68;7.28;;;;;;;8.10;63.72;99256.52;2252881;79;21160;-89
2021/04/23 07:06:39;;;;;;;10.08;8.15;;;;;;;8.04;63.60;99261.50;2253068;79;21749;-84
2021/04/23 07:09:40;;;;;;;12.03;8.43;;;;;;;7.96;64.17;99259.67;2252874;79;21313;-82
2021/04/23 07:12:42;;;;;;;13.10;8.23;;;;;;;8.02;63.66;99262.14;2252674;79;21170;-82
2021/04/23 07:15:45;;;;;;;11.20;7.62;;;;;;;8.20;63.84;99264.25;2252630;79;21111;-82
2021/04/23 07:18:49;;;;;;;14.33;8.90;;;;;;;8.35;63.50;99264.58;2252715;79;21748;-83
2021/04/23 07:21:51;;;;;;;16.57;8.43;;;;;;;8.60;63.50;99257.73;2252759;79;21179;-82
2021/04/23 07:24:53;;;;;;;11.38;7.87;;;;;;;8.91;62.90;99256.77;2252614;79;21149;-81
2021/04/23 07:27:56;;;;;;;11.63;7.12;;;;;;;9.14;62.21;99261.75;2252696;79;21166;-83
2021/04/23 07:30:59;;;;;;;9.38;6.47;;;;;;;9.36;60.79;99268.23;2253129;79;21183;-81
2021/04/23 07:34:01;;;;;;;10.85;7.33;;;;;;;9.38;60.68;99261.86;2252920;79;21171;-81
2021/04/23 07:37:03;;;;;;;12.03;6.85;;;;;;;9.57;60.19;99252.11;2252632;79;21167;-86
2021/04/23 07:40:05;;;;;;;8.70;6.45;;;;;;;9.63;60.34;99273.21;2252596;79;21175;-82
2021/04/23 07:43:07;;;;;;;8.65;7.15;;;;;;;9.75;59.57;99276.83;2252933;79;21159;-83
2021/04/23 07:46:09;;;;;;;9.10;6.15;;;;;;;9.78;58.90;99273.88;2252975;79;21322;-86
2021/04/23 07:49:11;;;;;;;9.48;6.80;;;;;;;9.91;59.09;99274.25;2252550;79;21760;-82
2021/04/23 07:52:13;;;;;;;12.47;7.10;;;;;;;9.95;58.18;99263.77;2252923;79;21697;-82
2021/04/23 07:55:15;;;;;;;12.33;6.37;;;;;;;9.90;58.66;99270.81;2254884;79;21162;-82
2021/04/23 07:58:17;;;;;;;12.80;6.80;;;;;;;9.98;58.82;99257.75;2263647;78;21300;-83
2021/04/23 08:01:19;;;;;;;10.65;6.60;;;;;;;10.03;57.27;99258.55;2263690;78;21721;-91
2021/04/23 08:04:20;;;;;;;10.45;6.53;;;;;;;10.08;58.14;99260.70;2263567;79;21305;-86
2021/04/23 08:07:22;;;;;;;11.90;6.12;;;;;;;10.02;55.67;99263.95;2263296;79;21143;-83
2021/04/23 08:10:24;;;;;;;9.58;5.78;;;;;;;9.95;56.66;99267.70;2263166;78;21186;-84
2021/04/23 08:13:27;;;;;;;9.63;6.05;;;;;;;10.05;55.37;99264.44;2263437;78;21166;-83
2021/04/23 08:16:29;;;;;;;11.15;5.90;;;;;;;10.16;55.37;99260.21;2263338;78;21158;-86
2021/04/23 08:19:30;;;;;;;8.90;4.65;;;;;;;10.35;55.82;99260.41;2263552;79;21301;-86
2021/04/23 08:22:32;;;;;;;8.60;4.95;;;;;;;10.42;51.88;99249.60;2263234;79;21150;-85
2021/04/23 08:25:35;;;;;;;11.97;5.37;;;;;;;10.35;52.17;99252.55;2263443;79;21313;-83
2021/04/23 08:28:37;;;;;;;5.15;4.17;;;;;;;10.19;50.29;99261.19;2263699;78;21132;-89
2021/04/23 08:31:38;;;;;;;7.83;5.22;;;;;;;9.90;51.34;99272.13;2263623;79;21641;-89
2021/04/23 08:34:41;;;;;;;10.95;5.55;;;;;;;9.60;52.76;99267.00;2263643;78;21166;-82
2021/04/23 08:37:43;;;;;;;10.55;6.70;;;;;;;9.41;53.71;99270.67;2263603;79;21308;-82
2021/04/23 08:40:44;;;;;;;10.75;6.08;;;;;;;9.24;54.64;99266.40;2263425;78;21633;-82
2021/04/23 08:43:46;;;;;;;10.45;6.37;;;;;;;9.28;54.95;99269.02;2263650;78;21324;-80
2021/04/23 08:46:48;;;;;;;7.97;6.25;;;;;;;9.42;55.42;99266.30;2263351;78;21190;-81
2021/04/23 08:49:50;;;;;;;12.20;5.83;;;;;;;9.39;54.49;99266.59;2263379;78;21146;-83
2021/04/23 08:52:52;;;;;;;11.00;6.55;;;;;;;9.31;52.90;99260.84;2263426;78;21630;-82
2021/04/23 08:55:54;;;;;;;10.08;5.70;;;;;;;9.35;52.79;99255.66;2259742;78;21337;-83
2021/04/23 08:58:56;;;;;;;9.33;4.85;;;;;;;9.66;54.18;99258.99;2252978;79;21130;-84
2021/04/23 09:02:00;;;;;;;9.25;5.67;;;;;;;9.96;53.25;99253.64;2252751;79;21571;-84
2021/04/23 09:05:02;;;;;;;7.87;4.87;;;;;;;10.11;54.66;99240.24;2252678;79;21147;-84
2021/04/23 09:08:04;;;;;;;6.28;4.25;;;;;;;10.06;47.48;99256.94;2252642;79;21160;-85
2021/04/23 09:11:06;;;;;;;6.95;4.22;;;;;;;9.90;49.71;99262.15;2252829;79;21184;-84
2021/04/23 09:14:08;;;;;;;8.43;5.10;;;;;;;9.71;49.30;99256.73;2252925;79;21548;-84
2021/04/23 09:17:10;;;;;;;10.28;8.60;;;;;;;9.59;51.02;99252.77;2252647;79;21194;-84
2021/04/23 09:20:12;;;;;;;7.25;4.92;;;;;;;9.57;54.48;99249.50;2253451;79;21305;-82
2021/04/23 09:23:14;;;;;;;6.47;4.92;;;;;;;9.65;50.89;99240.36;2253341;79;21689;-80
2021/04/23 09:26:16;;;;;;;6.12;4.25;;;;;;;9.83;50.97;99237.13;2252629;79;21705;-82
2021/04/23 09:29:18;;;;;;;8.20;4.67;;;;;;;9.91;49.68;99235.83;2252697;79;21146;-82
2021/04/23 09:32:20;;;;;;;6.87;4.30;;;;;;;9.98;50.50;99241.23;2252595;79;21158;-81
2021/04/23 09:35:22;;;;;;;10.78;5.47;;;;;;;10.05;50.28;99242.69;2252676;79;21190;-81
2021/04/23 09:38:24;;;;;;;5.08;3.50;;;;;;;10.20;52.79;99239.26;2252839;79;21578;-84
2021/04/23 09:41:26;;;;;;;9.38;5.20;;;;;;;10.42;50.57;99226.50;2252796;79;21139;-83
2021/04/23 09:47:43;;;;;;;6.42;3.83;;;;;;;11.09;48.80;99223.06;2272749;77;23512;-77
2021/04/23 09:50:45;;;;;;;5.83;4.08;;;;;;;11.35;46.24;99218.85;2269129;78;21174;-80
2021/04/23 09:53:46;;;;;;;5.70;4.10;;;;;;;11.66;46.60;99217.51;2269605;78;21163;-78
2021/04/23 09:56:48;;;;;;;5.17;3.85;;;;;;;11.88;48.02;99204.09;2269666;78;21309;-80
2021/04/23 09:59:50;;;;;;;13.48;8.48;;;;;;;12.15;46.23;99196.98;2269699;78;21261;-79
2021/04/23 10:02:53;;;;;;;6.08;4.10;;;;;;;12.03;47.67;99205.46;2269358;78;21266;-78
2021/04/23 10:05:55;;;;;;;30.27;7.65;;;;;;;11.98;44.53;99220.44;2269583;78;21301;-81
2021/04/23 10:08:57;;;;;;;24.80;6.75;;;;;;;11.59;54.24;99215.25;2269371;78;21162;-82
2021/04/23 10:11:59;;;;;;;8.78;5.03;;;;;;;10.90;50.83;99248.36;2269352;78;21296;-85
2021/04/23 10:15:01;;;;;;;6.22;5.20;;;;;;;10.51;53.16;99263.47;2269639;78;21709;-82
2021/04/23 10:18:02;;;;;;;12.07;5.78;;;;;;;10.22;56.07;99253.02;2269338;78;21095;-79
2021/04/23 10:21:04;;;;;;;8.48;5.85;;;;;;;9.87;57.84;99260.66;2269306;78;21297;-81
2021/04/23 10:24:06;;;;;;;11.97;6.12;;;;;;;9.67;55.84;99274.52;2269254;78;21308;-81
2021/04/23 10:27:08;;;;;;;6.53;4.33;;;;;;;9.39;57.15;99275.74;2269583;78;21282;-81
2021/04/23 10:30:09;;;;;;;6.47;5.08;;;;;;;9.25;55.63;99280.28;2269604;78;21273;-79
2021/04/23 10:33:11;;;;;;;6.80;4.72;;;;;;;9.22;55.19;99276.66;2269290;78;21132;-80
2021/04/23 10:36:13;;;;;;;4.53;4.05;;;;;;;9.36;54.88;99272.97;2269478;78;21269;-81
2021/04/23 10:39:16;;;;;;;4.10;3.70;;;;;;;9.44;55.32;99272.67;2269210;78;21628;-81
2021/04/23 10:42:18;;;;;;;4.78;3.83;;;;;;;9.32;53.59;99270.81;2269952;78;22120;-82
2021/04/23 10:45:21;;;;;;;4.50;3.80;;;;;;;9.24;53.76;99265.58;2269029;78;21559;-81
2021/04/23 10:48:24;;;;;;;7.22;4.05;;;;;;;9.22;53.53;99257.88;2266269;78;21115;-79
2021/04/23 10:51:26;;;;;;;7.72;4.85;;;;;;;9.26;53.26;99262.31;2265850;78;21281;-84
2021/04/23 10:54:28;;;;;;;4.17;3.10;;;;;;;9.23;53.33;99253.46;2265948;78;21897;-83
2021/04/23 10:57:30;;;;;;;3.58;3.00;;;;;;;9.16;51.03;99253.30;2266300;78;21301;-82
2021/04/23 11:00:32;;;;;;;3.60;2.98;;;;;;;9.09;51.33;99273.18;2265476;79;21729;-84
2021/04/23 11:03:43;;;;;;;5.10;3.37;;;;;;;8.91;51.67;99260.69;2265136;79;21305;-83
2021/04/23 11:06:45;;;;;;;3.98;3.12;;;;;;;8.87;51.86;99247.59;2265907;78;21123;-88
2021/04/23 11:09:47;;;;;;;4.92;3.47;;;;;;;9.08;51.57;99250.16;2266104;78;21151;-82
2021/04/23 11:12:49;;;;;;;8.13;3.20;;;;;;;9.27;51.61;99251.70;2265355;78;21309;-84
2021/04/23 11:15:51;;;;;;;8.55;4.10;;;;;;;9.25;50.25;99248.44;2264931;79;21147;-85
2021/04/23 11:18:54;;;;;;;5.83;2.98;;;;;;;9.05;51.50;99264.84;2265280;78;21622;-83
2021/04/23 11:21:55;;;;;;;3.75;3.45;;;;;;;8.78;53.25;99276.30;2265188;78;21253;-84
2021/04/23 11:24:57;;;;;;;4.33;3.55;;;;;;;8.33;55.28;99280.84;2265198;78;21277;-83
2021/04/23 11:27:59;;;;;;;4.75;3.62;;;;;;;8.06;57.71;99299.52;2265191;78;21309;-83
2021/04/23 11:31:03;;;;;;;3.62;3.30;;;;;;;7.85;59.20;99267.20;2265229;78;21183;-86
2021/04/23 11:34:05;;;;;;;5.80;3.65;;;;;;;7.87;58.78;99278.33;2265457;79;21100;-86
2021/04/23 11:37:07;;;;;;;4.65;3.08;;;;;;;7.89;58.29;99280.78;2265984;78;21285;-86
2021/04/23 11:40:09;;;;;;;4.55;3.58;;;;;;;7.94;54.25;99268.91;2265433;79;21685;-86
2021/04/23 11:43:11;;;;;;;6.30;3.60;;;;;;;8.00;56.31;99277.94;2265700;78;21261;-86
2021/04/23 11:46:14;;;;;;;4.40;3.52;;;;;;;8.05;56.93;99263.98;2265053;79;21136;-90
2021/04/23 11:49:15;;;;;;;3.77;3.08;;;;;;;8.31;58.07;99238.40;2265318;78;21196;-85
2021/04/23 11:52:17;;;;;;;6.12;3.95;;;;;;;8.43;58.77;99246.37;2265276;78;21153;-85
2021/04/23 11:55:20;;;;;;;7.62;4.00;;;;;;;8.60;57.94;99235.06;2265431;79;21601;-88
2021/04/23 11:58:22;;;;;;;6.60;3.72;;;;;;;8.74;59.66;99233.17;2265259;78;21143;-84
2021/04/23 12:01:24;;;;;;;5.87;4.00;;;;;;;8.92;60.02;99236.20;2265520;79;21261;-89
2021/04/23 12:04:26;;;;;;;4.62;3.00;;;;;;;9.14;61.85;99240.86;2265536;78;21261;-87
2021/04/23 12:07:30;;;;;;;5.97;3.33;;;;;;;9.43;60.38;99239.19;2265083;78;21167;-85
2021/04/23 12:10:33;;;;;;;7.75;3.45;;;;;;;9.69;59.62;99245.59;2265327;78;21285;-89
2021/04/23 12:13:35;;;;;;;7.97;4.40;;;;;;;9.80;59.25;99245.80;2265033;78;21162;-85
2021/04/23 12:16:37;;;;;;;6.97;4.50;;;;;;;9.87;59.79;99235.80;2265363;79;21171;-86
2021/04/23 12:19:42;;;;;;;5.45;3.72;;;;;;;10.01;59.12;99243.52;2265443;79;21587;-85
2021/04/23 12:22:44;;;;;;;10.63;5.05;;;;;;;10.00;57.52;99241.06;2265213;79;21155;-87
2021/04/23 12:25:46;;;;;;;9.33;5.35;;;;;;;10.00;57.22;99237.14;2265277;78;21166;-85
2021/04/23 12:28:48;;;;;;;5.80;4.40;;;;;;;9.88;58.64;99237.96;2265483;79;21301;-87
2021/04/23 12:31:51;;;;;;;5.97;3.95;;;;;;;9.83;58.37;99234.50;2265316;79;21159;-90
2021/04/23 12:34:53;;;;;;;7.65;4.83;;;;;;;9.74;58.52;99252.47;2266301;78;21099;-91
2021/04/23 12:37:55;;;;;;;8.40;4.25;;;;;;;9.57;58.48;99247.70;2265980;78;21289;-87
2021/04/23 12:40:57;;;;;;;10.35;5.05;;;;;;;9.46;58.84;99236.23;2265324;78;21288;-86
2021/04/23 12:43:59;;;;;;;9.55;5.47;;;;;;;9.44;59.32;99237.38;2265951;79;21703;-86
2021/04/23 12:47:01;;;;;;;9.43;5.40;;;;;;;9.46;58.33;99228.40;2261694;78;21139;-86
2021/04/23 12:50:03;;;;;;;7.85;4.60;;;;;;;9.59;59.10;99227.43;2257907;78;21115;-86
2021/04/23 12:53:05;;;;;;;8.65;5.67;;;;;;;9.77;58.84;99203.77;2258196;79;21171;-86
2021/04/23 12:56:07;;;;;;;6.97;4.37;;;;;;;9.91;58.57;99201.00;2258230;79;21606;-85
2021/04/23 12:59:09;;;;;;;7.55;4.70;;;;;;;10.07;56.87;99218.02;2258140;78;21100;-86
2021/04/23 13:02:12;;;;;;;5.87;4.70;;;;;;;10.10;57.56;99212.45;2258187;79;21322;-86
2021/04/23 13:05:14;;;;;;;6.78;4.10;;;;;;;10.24;57.28;99194.81;2258271;79;21151;-86
2021/04/23 13:08:16;;;;;;;11.60;5.17;;;;;;;10.58;56.37;99205.53;2257922;78;21144;-86
2021/04/23 13:11:18;;;;;;;7.50;5.15;;;;;;;10.99;56.21;99197.06;2258268;79;21162;-86
2021/04/23 13:14:20;;;;;;;13.28;4.58;;;;;;;11.33;54.80;99198.02;2258316;79;21159;-85
2021/04/23 13:17:22;;;;;;;5.92;4.10;;;;;;;11.65;54.85;99204.89;2258273;79;21112;-86
2021/04/23 13:20:24;;;;;;;9.18;3.95;;;;;;;11.85;52.83;99193.46;2258082;79;21171;-86
2021/04/23 13:23:26;;;;;;;7.62;4.47;;;;;;;11.94;53.01;99209.46;2258041;79;21718;-88
2021/04/23 13:26:28;;;;;;;7.58;4.47;;;;;;;11.86;48.27;99253.31;2258612;79;21293;-85
2021/04/23 13:29:32;;;;;;;4.08;3.67;;;;;;;11.23;48.83;99281.80;2258496;78;21725;-89
2021/04/23 13:32:34;;;;;;;5.60;4.75;;;;;;;10.20;50.09;99279.83;2258332;79;21140;-86
2021/04/23 13:35:35;;;;;;;4.87;4.30;;;;;;;9.47;51.91;99272.34;2257971;79;21131;-86
2021/04/23 13:38:39;;;;;;;8.75;4.17;;;;;;;9.28;53.44;99259.86;2258077;79;21591;-86
2021/04/23 13:41:41;;;;;;;8.75;4.35;;;;;;;9.00;54.53;99269.70;2257904;78;21304;-86
2021/04/23 13:44:43;;;;;;;5.17;3.77;;;;;;;8.81;55.92;99264.22;2257749;78;21159;-86
2021/04/23 13:47:45;;;;;;;8.53;4.35;;;;;;;8.77;56.08;99266.80;2260679;79;21598;-85
2021/04/23 13:50:47;;;;;;;5.78;4.78;;;;;;;8.82;56.19;99278.09;2262480;79;21282;-86
2021/04/23 13:53:49;;;;;;;4.55;4.15;;;;;;;8.76;55.80;99259.94;2262587;78;21321;-86
2021/04/23 13:56:50;;;;;;;6.08;4.30;;;;;;;8.69;56.36;99272.48;2262554;78;21309;-86
2021/04/23 13:59:53;;;;;;;8.88;5.10;;;;;;;8.57;56.59;99286.25;2262238;78;21301;-85
2021/04/23 14:02:55;;;;;;;6.85;4.80;;;;;;;8.51;57.14;99286.39;2262251;78;21749;-85
2021/04/23 14:05:57;;;;;;;5.15;4.08;;;;;;;8.35;57.82;99303.71;2262190;78;21322;-86
2021/04/23 14:08:58;;;;;;;5.45;3.83;;;;;;;8.32;57.02;99292.22;2262187;79;21725;-86
2021/04/23 14:12:00;;;;;;;5.60;4.05;;;;;;;8.24;56.80;99297.73;2262157;78;21313;-86
2021/04/23 14:15:02;;;;;;;7.12;4.42;;;;;;;8.07;57.36;99282.91;2262876;78;21162;-86
2021/04/23 14:18:04;;;;;;;7.55;5.50;;;;;;;7.99;58.36;99284.13;2262328;78;21734;-86
2021/04/23 14:21:06;;;;;;;11.25;5.85;;;;;;;7.88;58.20;99284.36;2262656;78;21159;-86
2021/04/23 14:24:08;;;;;;;12.18;7.10;;;;;;;7.83;58.16;99287.88;2262712;78;21314;-86